sensor_id;sensor_type;location;lat;lon;timestamp;P1;durP1;ratioP1;P2;durP2;ratioP2
62832;SDS011;48891;49.220;6.920;2023-01-31T00:01:23;61.80;;;38.80;;
62832;SDS011;48891;49.220;6.920;2023-01-31T00:03:52;64.38;;;39.60;;
62832;SDS011;48891;49.220;6.920;2023-01-31T00:06:19;61.53;;;38.13;;
62832;SDS011;48891;49.220;6.920;2023-01-31T00:08:45;63.75;;;38.47;;
62832;SDS011;48891;49.220;6.920;2023-01-31T00:11:10;63.78;;;38.55;;
62832;SDS011;48891;49.220;6.920;2023-01-31T00:13:36;61.90;;;40.00;;
62832;SDS011;48891;49.220;6.920;2023-01-31T00:16:01;60.72;;;37.97;;
62832;SDS011;48891;49.220;6.920;2023-01-31T00:18:26;60.47;;;38.10;;
62832;SDS011;48891;49.220;6.920;2023-01-31T00:20:51;62.10;;;38.33;;
62832;SDS011;48891;49.220;6.920;2023-01-31T00:23:16;65.40;;;38.83;;
62832;SDS011;48891;49.220;6.920;2023-01-31T00:25:42;59.70;;;37.92;;
62832;SDS011;48891;49.220;6.920;2023-01-31T00:28:07;61.17;;;37.47;;
62832;SDS011;48891;49.220;6.920;2023-01-31T00:30:32;62.83;;;38.50;;
62832;SDS011;48891;49.220;6.920;2023-01-31T00:32:57;65.22;;;39.72;;
62832;SDS011;48891;49.220;6.920;2023-01-31T00:35:22;63.80;;;38.70;;
62832;SDS011;48891;49.220;6.920;2023-01-31T00:37:47;63.88;;;37.90;;
62832;SDS011;48891;49.220;6.920;2023-01-31T00:40:13;60.33;;;37.45;;
62832;SDS011;48891;49.220;6.920;2023-01-31T00:42:38;62.70;;;37.83;;
62832;SDS011;48891;49.220;6.920;2023-01-31T00:45:03;61.53;;;39.38;;
62832;SDS011;48891;49.220;6.920;2023-01-31T00:47:29;63.75;;;40.83;;
62832;SDS011;48891;49.220;6.920;2023-01-31T00:49:54;61.92;;;37.67;;
62832;SDS011;48891;49.220;6.920;2023-01-31T00:52:19;60.92;;;38.10;;
62832;SDS011;48891;49.220;6.920;2023-01-31T00:54:44;61.85;;;38.08;;
62832;SDS011;48891;49.220;6.920;2023-01-31T00:57:09;63.03;;;37.95;;
62832;SDS011;48891;49.220;6.920;2023-01-31T00:59:34;60.85;;;37.90;;
62832;SDS011;48891;49.220;6.920;2023-01-31T01:01:59;63.53;;;37.90;;
62832;SDS011;48891;49.220;6.920;2023-01-31T01:04:24;56.40;;;35.60;;
62832;SDS011;48891;49.220;6.920;2023-01-31T01:06:50;62.97;;;38.55;;
62832;SDS011;48891;49.220;6.920;2023-01-31T01:09:15;59.25;;;37.22;;
62832;SDS011;48891;49.220;6.920;2023-01-31T01:11:40;62.08;;;38.47;;
62832;SDS011;48891;49.220;6.920;2023-01-31T01:14:06;60.17;;;37.40;;
62832;SDS011;48891;49.220;6.920;2023-01-31T01:16:32;60.10;;;37.43;;
62832;SDS011;48891;49.220;6.920;2023-01-31T01:18:59;63.85;;;39.25;;
62832;SDS011;48891;49.220;6.920;2023-01-31T01:21:25;63.95;;;39.13;;
62832;SDS011;48891;49.220;6.920;2023-01-31T01:23:51;55.17;;;37.72;;
62832;SDS011;48891;49.220;6.920;2023-01-31T01:26:18;61.38;;;37.10;;
62832;SDS011;48891;49.220;6.920;2023-01-31T01:28:43;60.97;;;37.58;;
62832;SDS011;48891;49.220;6.920;2023-01-31T01:31:09;59.58;;;37.10;;
62832;SDS011;48891;49.220;6.920;2023-01-31T01:33:35;59.40;;;36.75;;
62832;SDS011;48891;49.220;6.920;2023-01-31T01:36:01;59.03;;;37.75;;
62832;SDS011;48891;49.220;6.920;2023-01-31T01:38:26;59.45;;;35.78;;
62832;SDS011;48891;49.220;6.920;2023-01-31T01:40:51;61.60;;;39.00;;
62832;SDS011;48891;49.220;6.920;2023-01-31T01:43:16;65.18;;;38.35;;
62832;SDS011;48891;49.220;6.920;2023-01-31T01:45:41;61.00;;;38.63;;
62832;SDS011;48891;49.220;6.920;2023-01-31T01:48:10;62.90;;;38.05;;
62832;SDS011;48891;49.220;6.920;2023-01-31T01:50:38;62.55;;;37.30;;
62832;SDS011;48891;49.220;6.920;2023-01-31T01:53:08;60.67;;;37.10;;
62832;SDS011;48891;49.220;6.920;2023-01-31T01:55:38;62.92;;;38.45;;
62832;SDS011;48891;49.220;6.920;2023-01-31T01:58:08;59.42;;;36.60;;
62832;SDS011;48891;49.220;6.920;2023-01-31T02:00:34;60.53;;;37.60;;
62832;SDS011;48891;49.220;6.920;2023-01-31T02:03:00;60.65;;;37.90;;
62832;SDS011;48891;49.220;6.920;2023-01-31T02:07:54;61.40;;;38.22;;
62832;SDS011;48891;49.220;6.920;2023-01-31T02:10:21;57.47;;;36.75;;
62832;SDS011;48891;49.220;6.920;2023-01-31T02:12:48;61.40;;;37.63;;
62832;SDS011;48891;49.220;6.920;2023-01-31T02:15:13;60.73;;;38.03;;
62832;SDS011;48891;49.220;6.920;2023-01-31T02:17:38;63.47;;;38.50;;
62832;SDS011;48891;49.220;6.920;2023-01-31T02:30:30;63.60;;;39.03;;
62832;SDS011;48891;49.220;6.920;2023-01-31T02:33:19;61.25;;;38.88;;
62832;SDS011;48891;49.220;6.920;2023-01-31T02:40:48;61.25;;;37.75;;
62832;SDS011;48891;49.220;6.920;2023-01-31T02:43:26;62.90;;;38.23;;
62832;SDS011;48891;49.220;6.920;2023-01-31T02:51:03;64.75;;;39.22;;
62832;SDS011;48891;49.220;6.920;2023-01-31T02:53:31;59.08;;;37.92;;
62832;SDS011;48891;49.220;6.920;2023-01-31T02:56:02;62.83;;;38.22;;
62832;SDS011;48891;49.220;6.920;2023-01-31T02:58:29;65.32;;;40.08;;
62832;SDS011;48891;49.220;6.920;2023-01-31T03:00:56;62.67;;;39.45;;
62832;SDS011;48891;49.220;6.920;2023-01-31T03:03:26;65.32;;;38.50;;
62832;SDS011;48891;49.220;6.920;2023-01-31T03:11:21;61.78;;;38.97;;
62832;SDS011;48891;49.220;6.920;2023-01-31T03:18:48;66.38;;;38.78;;
62832;SDS011;48891;49.220;6.920;2023-01-31T03:21:16;70.60;;;40.90;;
62832;SDS011;48891;49.220;6.920;2023-01-31T03:23:43;65.30;;;39.47;;
62832;SDS011;48891;49.220;6.920;2023-01-31T03:26:09;67.63;;;42.10;;
62832;SDS011;48891;49.220;6.920;2023-01-31T03:28:35;64.70;;;40.70;;
62832;SDS011;48891;49.220;6.920;2023-01-31T03:31:22;63.45;;;40.85;;
62832;SDS011;48891;49.220;6.920;2023-01-31T03:33:50;65.53;;;42.20;;
62832;SDS011;48891;49.220;6.920;2023-01-31T03:36:22;66.75;;;40.85;;
62832;SDS011;48891;49.220;6.920;2023-01-31T03:38:56;69.38;;;42.55;;
62832;SDS011;48891;49.220;6.920;2023-01-31T03:41:24;64.97;;;40.70;;
62832;SDS011;48891;49.220;6.920;2023-01-31T03:43:58;65.47;;;41.47;;
62832;SDS011;48891;49.220;6.920;2023-01-31T03:46:27;68.47;;;42.53;;
62832;SDS011;48891;49.220;6.920;2023-01-31T03:48:54;68.10;;;42.65;;
62832;SDS011;48891;49.220;6.920;2023-01-31T03:51:22;71.20;;;42.15;;
62832;SDS011;48891;49.220;6.920;2023-01-31T03:53:53;69.70;;;43.05;;
62832;SDS011;48891;49.220;6.920;2023-01-31T03:56:29;68.20;;;41.75;;
62832;SDS011;48891;49.220;6.920;2023-01-31T03:59:00;69.50;;;41.05;;
62832;SDS011;48891;49.220;6.920;2023-01-31T04:01:27;68.32;;;41.38;;
62832;SDS011;48891;49.220;6.920;2023-01-31T04:04:00;71.05;;;42.13;;
62832;SDS011;48891;49.220;6.920;2023-01-31T04:06:26;70.28;;;43.00;;
62832;SDS011;48891;49.220;6.920;2023-01-31T04:08:51;69.87;;;43.70;;
62832;SDS011;48891;49.220;6.920;2023-01-31T04:11:18;69.13;;;42.23;;
62832;SDS011;48891;49.220;6.920;2023-01-31T04:13:43;69.82;;;42.17;;
62832;SDS011;48891;49.220;6.920;2023-01-31T04:16:08;69.78;;;43.30;;
62832;SDS011;48891;49.220;6.920;2023-01-31T04:18:34;72.93;;;42.28;;
62832;SDS011;48891;49.220;6.920;2023-01-31T04:20:59;67.32;;;41.75;;
62832;SDS011;48891;49.220;6.920;2023-01-31T04:23:24;69.07;;;41.95;;
62832;SDS011;48891;49.220;6.920;2023-01-31T04:25:49;71.13;;;42.80;;
62832;SDS011;48891;49.220;6.920;2023-01-31T04:28:16;70.47;;;43.03;;
62832;SDS011;48891;49.220;6.920;2023-01-31T04:30:41;70.22;;;42.58;;
62832;SDS011;48891;49.220;6.920;2023-01-31T04:33:06;72.55;;;43.08;;
62832;SDS011;48891;49.220;6.920;2023-01-31T04:35:31;71.00;;;41.80;;
62832;SDS011;48891;49.220;6.920;2023-01-31T04:37:56;69.50;;;42.80;;
62832;SDS011;48891;49.220;6.920;2023-01-31T04:40:21;70.63;;;42.20;;
62832;SDS011;48891;49.220;6.920;2023-01-31T04:42:48;70.82;;;41.90;;
62832;SDS011;48891;49.220;6.920;2023-01-31T04:45:13;70.82;;;42.83;;
62832;SDS011;48891;49.220;6.920;2023-01-31T04:47:39;73.03;;;44.70;;
62832;SDS011;48891;49.220;6.920;2023-01-31T04:50:04;73.10;;;43.05;;
62832;SDS011;48891;49.220;6.920;2023-01-31T04:52:29;69.47;;;42.55;;
62832;SDS011;48891;49.220;6.920;2023-01-31T04:54:54;71.30;;;41.90;;
62832;SDS011;48891;49.220;6.920;2023-01-31T04:57:19;68.45;;;41.00;;
62832;SDS011;48891;49.220;6.920;2023-01-31T04:59:45;73.63;;;44.10;;
62832;SDS011;48891;49.220;6.920;2023-01-31T05:02:10;73.10;;;43.22;;
62832;SDS011;48891;49.220;6.920;2023-01-31T05:04:35;70.90;;;42.05;;
62832;SDS011;48891;49.220;6.920;2023-01-31T05:07:00;70.23;;;42.23;;
62832;SDS011;48891;49.220;6.920;2023-01-31T05:09:25;69.30;;;41.35;;
62832;SDS011;48891;49.220;6.920;2023-01-31T05:11:50;70.82;;;42.03;;
62832;SDS011;48891;49.220;6.920;2023-01-31T05:14:16;70.22;;;41.45;;
62832;SDS011;48891;49.220;6.920;2023-01-31T05:16:41;72.65;;;42.10;;
62832;SDS011;48891;49.220;6.920;2023-01-31T05:19:06;69.47;;;41.53;;
62832;SDS011;48891;49.220;6.920;2023-01-31T05:21:31;65.90;;;40.38;;
62832;SDS011;48891;49.220;6.920;2023-01-31T05:23:56;69.55;;;41.42;;
62832;SDS011;48891;49.220;6.920;2023-01-31T05:26:22;71.97;;;41.72;;
62832;SDS011;48891;49.220;6.920;2023-01-31T05:28:47;69.20;;;42.13;;
62832;SDS011;48891;49.220;6.920;2023-01-31T05:31:12;71.38;;;41.58;;
62832;SDS011;48891;49.220;6.920;2023-01-31T05:33:37;71.00;;;40.92;;
62832;SDS011;48891;49.220;6.920;2023-01-31T05:36:02;72.28;;;40.65;;
62832;SDS011;48891;49.220;6.920;2023-01-31T05:38:28;73.38;;;42.08;;
62832;SDS011;48891;49.220;6.920;2023-01-31T05:40:53;71.45;;;40.38;;
62832;SDS011;48891;49.220;6.920;2023-01-31T05:43:18;69.97;;;40.90;;
62832;SDS011;48891;49.220;6.920;2023-01-31T05:45:43;66.90;;;40.15;;
62832;SDS011;48891;49.220;6.920;2023-01-31T05:48:08;65.97;;;40.20;;
62832;SDS011;48891;49.220;6.920;2023-01-31T05:50:34;69.18;;;40.60;;
62832;SDS011;48891;49.220;6.920;2023-01-31T05:52:59;66.50;;;40.17;;
62832;SDS011;48891;49.220;6.920;2023-01-31T05:55:25;67.53;;;38.90;;
62832;SDS011;48891;49.220;6.920;2023-01-31T05:57:50;68.78;;;39.65;;
62832;SDS011;48891;49.220;6.920;2023-01-31T06:00:16;66.38;;;40.17;;
62832;SDS011;48891;49.220;6.920;2023-01-31T06:02:41;67.65;;;39.83;;
62832;SDS011;48891;49.220;6.920;2023-01-31T06:05:07;72.50;;;41.40;;
62832;SDS011;48891;49.220;6.920;2023-01-31T06:07:32;65.25;;;40.15;;
62832;SDS011;48891;49.220;6.920;2023-01-31T06:09:57;66.90;;;39.55;;
62832;SDS011;48891;49.220;6.920;2023-01-31T06:12:22;70.82;;;39.67;;
62832;SDS011;48891;49.220;6.920;2023-01-31T06:14:48;68.82;;;39.72;;
62832;SDS011;48891;49.220;6.920;2023-01-31T06:17:13;63.83;;;37.10;;
62832;SDS011;48891;49.220;6.920;2023-01-31T06:19:38;67.35;;;40.47;;
62832;SDS011;48891;49.220;6.920;2023-01-31T06:22:03;67.03;;;38.80;;
62832;SDS011;48891;49.220;6.920;2023-01-31T06:24:29;64.43;;;38.15;;
62832;SDS011;48891;49.220;6.920;2023-01-31T06:26:54;66.80;;;38.15;;
62832;SDS011;48891;49.220;6.920;2023-01-31T06:29:19;65.17;;;39.27;;
62832;SDS011;48891;49.220;6.920;2023-01-31T06:31:44;66.82;;;37.55;;
62832;SDS011;48891;49.220;6.920;2023-01-31T06:34:10;63.33;;;37.22;;
62832;SDS011;48891;49.220;6.920;2023-01-31T06:36:35;67.07;;;37.05;;
62832;SDS011;48891;49.220;6.920;2023-01-31T06:39:00;63.60;;;36.80;;
62832;SDS011;48891;49.220;6.920;2023-01-31T06:41:25;63.50;;;37.03;;
62832;SDS011;48891;49.220;6.920;2023-01-31T06:43:50;64.35;;;38.38;;
62832;SDS011;48891;49.220;6.920;2023-01-31T06:46:15;62.90;;;36.05;;
62832;SDS011;48891;49.220;6.920;2023-01-31T06:48:41;65.28;;;38.50;;
62832;SDS011;48891;49.220;6.920;2023-01-31T06:51:06;65.28;;;36.15;;
62832;SDS011;48891;49.220;6.920;2023-01-31T06:53:31;64.00;;;35.40;;
62832;SDS011;48891;49.220;6.920;2023-01-31T06:55:56;62.95;;;36.85;;
62832;SDS011;48891;49.220;6.920;2023-01-31T06:58:21;63.80;;;36.47;;
62832;SDS011;48891;49.220;6.920;2023-01-31T07:00:46;62.70;;;37.10;;
62832;SDS011;48891;49.220;6.920;2023-01-31T07:03:11;65.90;;;37.70;;
62832;SDS011;48891;49.220;6.920;2023-01-31T07:05:36;60.70;;;36.13;;
62832;SDS011;48891;49.220;6.920;2023-01-31T07:08:02;62.22;;;36.83;;
62832;SDS011;48891;49.220;6.920;2023-01-31T07:10:27;59.67;;;34.97;;
62832;SDS011;48891;49.220;6.920;2023-01-31T07:12:52;60.90;;;36.05;;
62832;SDS011;48891;49.220;6.920;2023-01-31T07:15:17;63.25;;;36.55;;
62832;SDS011;48891;49.220;6.920;2023-01-31T07:17:42;63.30;;;37.40;;
62832;SDS011;48891;49.220;6.920;2023-01-31T07:20:08;59.63;;;34.63;;
62832;SDS011;48891;49.220;6.920;2023-01-31T07:22:33;62.22;;;34.28;;
62832;SDS011;48891;49.220;6.920;2023-01-31T07:24:58;63.35;;;35.97;;
62832;SDS011;48891;49.220;6.920;2023-01-31T07:27:23;62.67;;;35.93;;
62832;SDS011;48891;49.220;6.920;2023-01-31T07:29:48;59.25;;;35.05;;
62832;SDS011;48891;49.220;6.920;2023-01-31T07:32:13;59.75;;;34.97;;
62832;SDS011;48891;49.220;6.920;2023-01-31T07:34:39;60.33;;;34.35;;
62832;SDS011;48891;49.220;6.920;2023-01-31T07:37:04;58.88;;;33.15;;
62832;SDS011;48891;49.220;6.920;2023-01-31T07:39:29;55.90;;;32.38;;
62832;SDS011;48891;49.220;6.920;2023-01-31T07:41:54;57.08;;;32.85;;
62832;SDS011;48891;49.220;6.920;2023-01-31T07:44:19;56.83;;;33.10;;
62832;SDS011;48891;49.220;6.920;2023-01-31T07:46:44;59.20;;;32.05;;
62832;SDS011;48891;49.220;6.920;2023-01-31T07:49:10;59.70;;;33.97;;
62832;SDS011;48891;49.220;6.920;2023-01-31T07:51:35;62.00;;;32.60;;
62832;SDS011;48891;49.220;6.920;2023-01-31T07:54:01;61.87;;;34.43;;
62832;SDS011;48891;49.220;6.920;2023-01-31T07:56:26;55.88;;;31.95;;
62832;SDS011;48891;49.220;6.920;2023-01-31T07:58:51;58.05;;;31.83;;
62832;SDS011;48891;49.220;6.920;2023-01-31T08:01:18;62.33;;;33.35;;
62832;SDS011;48891;49.220;6.920;2023-01-31T08:03:43;56.70;;;32.78;;
62832;SDS011;48891;49.220;6.920;2023-01-31T08:06:09;59.03;;;32.03;;
62832;SDS011;48891;49.220;6.920;2023-01-31T08:08:35;55.30;;;31.85;;
62832;SDS011;48891;49.220;6.920;2023-01-31T08:11:00;57.78;;;32.83;;
62832;SDS011;48891;49.220;6.920;2023-01-31T08:13:25;55.92;;;31.48;;
62832;SDS011;48891;49.220;6.920;2023-01-31T08:15:50;55.55;;;31.77;;
62832;SDS011;48891;49.220;6.920;2023-01-31T08:18:16;58.08;;;32.53;;
62832;SDS011;48891;49.220;6.920;2023-01-31T08:20:41;52.53;;;30.58;;
62832;SDS011;48891;49.220;6.920;2023-01-31T08:23:06;54.08;;;29.90;;
62832;SDS011;48891;49.220;6.920;2023-01-31T08:25:31;52.70;;;29.83;;
62832;SDS011;48891;49.220;6.920;2023-01-31T08:27:57;57.80;;;30.60;;
62832;SDS011;48891;49.220;6.920;2023-01-31T08:30:22;55.10;;;30.95;;
62832;SDS011;48891;49.220;6.920;2023-01-31T08:32:47;52.80;;;30.10;;
62832;SDS011;48891;49.220;6.920;2023-01-31T08:35:12;57.33;;;29.58;;
62832;SDS011;48891;49.220;6.920;2023-01-31T08:37:37;54.67;;;30.98;;
62832;SDS011;48891;49.220;6.920;2023-01-31T08:40:03;49.85;;;29.60;;
62832;SDS011;48891;49.220;6.920;2023-01-31T08:42:28;53.60;;;29.58;;
62832;SDS011;48891;49.220;6.920;2023-01-31T08:44:53;53.95;;;29.45;;
62832;SDS011;48891;49.220;6.920;2023-01-31T08:47:18;51.63;;;28.27;;
62832;SDS011;48891;49.220;6.920;2023-01-31T08:49:44;47.42;;;26.70;;
62832;SDS011;48891;49.220;6.920;2023-01-31T08:52:09;50.83;;;26.73;;
62832;SDS011;48891;49.220;6.920;2023-01-31T08:54:34;51.05;;;27.35;;
62832;SDS011;48891;49.220;6.920;2023-01-31T08:56:59;51.03;;;28.38;;
62832;SDS011;48891;49.220;6.920;2023-01-31T08:59:24;51.75;;;28.30;;
62832;SDS011;48891;49.220;6.920;2023-01-31T09:01:50;52.00;;;27.58;;
62832;SDS011;48891;49.220;6.920;2023-01-31T09:04:15;48.65;;;28.17;;
62832;SDS011;48891;49.220;6.920;2023-01-31T09:06:40;47.20;;;26.95;;
62832;SDS011;48891;49.220;6.920;2023-01-31T09:09:05;46.80;;;26.13;;
62832;SDS011;48891;49.220;6.920;2023-01-31T09:11:30;51.53;;;27.92;;
62832;SDS011;48891;49.220;6.920;2023-01-31T09:13:56;49.30;;;27.42;;
62832;SDS011;48891;49.220;6.920;2023-01-31T09:16:21;50.30;;;28.00;;
62832;SDS011;48891;49.220;6.920;2023-01-31T09:18:46;48.28;;;27.45;;
62832;SDS011;48891;49.220;6.920;2023-01-31T09:21:12;46.83;;;26.77;;
62832;SDS011;48891;49.220;6.920;2023-01-31T09:23:38;50.85;;;27.63;;
62832;SDS011;48891;49.220;6.920;2023-01-31T09:26:04;49.30;;;27.20;;
62832;SDS011;48891;49.220;6.920;2023-01-31T09:28:29;46.90;;;25.98;;
62832;SDS011;48891;49.220;6.920;2023-01-31T09:30:55;50.25;;;27.33;;
62832;SDS011;48891;49.220;6.920;2023-01-31T09:33:25;50.05;;;27.60;;
62832;SDS011;48891;49.220;6.920;2023-01-31T09:35:54;50.08;;;27.35;;
62832;SDS011;48891;49.220;6.920;2023-01-31T09:38:19;47.40;;;27.05;;
62832;SDS011;48891;49.220;6.920;2023-01-31T09:40:44;53.30;;;28.17;;
62832;SDS011;48891;49.220;6.920;2023-01-31T09:43:10;47.72;;;26.67;;
62832;SDS011;48891;49.220;6.920;2023-01-31T09:45:36;48.85;;;26.83;;
62832;SDS011;48891;49.220;6.920;2023-01-31T09:48:03;47.47;;;25.98;;
62832;SDS011;48891;49.220;6.920;2023-01-31T09:52:54;46.22;;;26.20;;
62832;SDS011;48891;49.220;6.920;2023-01-31T09:55:28;47.97;;;27.13;;
62832;SDS011;48891;49.220;6.920;2023-01-31T09:58:00;44.58;;;25.60;;
62832;SDS011;48891;49.220;6.920;2023-01-31T10:00:31;50.97;;;26.70;;
62832;SDS011;48891;49.220;6.920;2023-01-31T10:10:38;47.38;;;27.02;;
62832;SDS011;48891;49.220;6.920;2023-01-31T10:13:09;43.40;;;25.73;;
62832;SDS011;48891;49.220;6.920;2023-01-31T10:15:37;45.20;;;25.50;;
62832;SDS011;48891;49.220;6.920;2023-01-31T10:18:05;43.83;;;25.38;;
62832;SDS011;48891;49.220;6.920;2023-01-31T10:23:31;45.42;;;26.00;;
62832;SDS011;48891;49.220;6.920;2023-01-31T10:25:56;45.33;;;25.08;;
62832;SDS011;48891;49.220;6.920;2023-01-31T10:28:24;45.35;;;25.00;;
62832;SDS011;48891;49.220;6.920;2023-01-31T10:33:24;50.53;;;27.08;;
62832;SDS011;48891;49.220;6.920;2023-01-31T10:35:53;45.25;;;26.70;;
62832;SDS011;48891;49.220;6.920;2023-01-31T10:38:53;47.10;;;26.02;;
62832;SDS011;48891;49.220;6.920;2023-01-31T10:41:12;47.97;;;26.42;;
62832;SDS011;48891;49.220;6.920;2023-01-31T10:43:40;45.13;;;26.58;;
62832;SDS011;48891;49.220;6.920;2023-01-31T10:46:08;44.40;;;26.65;;
62832;SDS011;48891;49.220;6.920;2023-01-31T10:48:33;45.95;;;26.25;;
62832;SDS011;48891;49.220;6.920;2023-01-31T10:58:20;46.17;;;25.02;;
62832;SDS011;48891;49.220;6.920;2023-01-31T11:00:46;43.72;;;26.38;;
62832;SDS011;48891;49.220;6.920;2023-01-31T11:03:12;44.58;;;25.90;;
62832;SDS011;48891;49.220;6.920;2023-01-31T11:05:39;43.35;;;26.27;;
62832;SDS011;48891;49.220;6.920;2023-01-31T11:08:16;43.58;;;26.15;;
62832;SDS011;48891;49.220;6.920;2023-01-31T11:10:54;44.88;;;26.25;;
62832;SDS011;48891;49.220;6.920;2023-01-31T11:13:19;44.35;;;24.90;;
62832;SDS011;48891;49.220;6.920;2023-01-31T11:15:45;44.17;;;26.20;;
62832;SDS011;48891;49.220;6.920;2023-01-31T11:18:14;44.03;;;25.40;;
62832;SDS011;48891;49.220;6.920;2023-01-31T11:20:43;46.03;;;26.08;;
62832;SDS011;48891;49.220;6.920;2023-01-31T11:23:09;41.85;;;25.55;;
62832;SDS011;48891;49.220;6.920;2023-01-31T11:25:36;42.67;;;25.45;;
62832;SDS011;48891;49.220;6.920;2023-01-31T11:28:15;46.13;;;26.02;;
62832;SDS011;48891;49.220;6.920;2023-01-31T11:30:45;47.70;;;27.05;;
62832;SDS011;48891;49.220;6.920;2023-01-31T11:33:35;42.55;;;25.38;;
62832;SDS011;48891;49.220;6.920;2023-01-31T11:35:56;42.72;;;24.92;;
62832;SDS011;48891;49.220;6.920;2023-01-31T11:38:21;44.75;;;25.65;;
62832;SDS011;48891;49.220;6.920;2023-01-31T11:40:47;42.97;;;25.48;;
62832;SDS011;48891;49.220;6.920;2023-01-31T11:45:44;47.97;;;26.92;;
62832;SDS011;48891;49.220;6.920;2023-01-31T11:53:14;45.78;;;26.90;;
62832;SDS011;48891;49.220;6.920;2023-01-31T11:55:40;43.15;;;25.23;;
62832;SDS011;48891;49.220;6.920;2023-01-31T11:58:09;45.83;;;25.98;;
62832;SDS011;48891;49.220;6.920;2023-01-31T12:00:39;43.25;;;26.02;;
62832;SDS011;48891;49.220;6.920;2023-01-31T12:03:12;43.95;;;25.48;;
62832;SDS011;48891;49.220;6.920;2023-01-31T12:05:42;43.10;;;26.13;;
62832;SDS011;48891;49.220;6.920;2023-01-31T12:08:28;44.75;;;27.00;;
62832;SDS011;48891;49.220;6.920;2023-01-31T12:10:53;45.72;;;26.98;;
62832;SDS011;48891;49.220;6.920;2023-01-31T12:13:19;44.92;;;26.38;;
62832;SDS011;48891;49.220;6.920;2023-01-31T12:18:20;43.20;;;25.73;;
62832;SDS011;48891;49.220;6.920;2023-01-31T12:20:52;41.63;;;25.83;;
62832;SDS011;48891;49.220;6.920;2023-01-31T12:23:26;44.60;;;26.90;;
62832;SDS011;48891;49.220;6.920;2023-01-31T12:26:04;41.03;;;26.13;;
62832;SDS011;48891;49.220;6.920;2023-01-31T12:28:35;41.83;;;26.10;;
62832;SDS011;48891;49.220;6.920;2023-01-31T12:31:18;42.83;;;26.52;;
62832;SDS011;48891;49.220;6.920;2023-01-31T12:33:55;40.17;;;26.80;;
62832;SDS011;48891;49.220;6.920;2023-01-31T12:38:55;41.33;;;26.63;;
62832;SDS011;48891;49.220;6.920;2023-01-31T12:47:17;42.03;;;26.75;;
62832;SDS011;48891;49.220;6.920;2023-01-31T12:57:23;42.13;;;26.48;;
62832;SDS011;48891;49.220;6.920;2023-01-31T13:05:02;46.90;;;27.52;;
62832;SDS011;48891;49.220;6.920;2023-01-31T13:07:33;44.20;;;26.95;;
62832;SDS011;48891;49.220;6.920;2023-01-31T13:10:00;43.50;;;26.90;;
62832;SDS011;48891;49.220;6.920;2023-01-31T13:12:27;46.85;;;27.85;;
62832;SDS011;48891;49.220;6.920;2023-01-31T13:15:04;46.22;;;30.05;;
62832;SDS011;48891;49.220;6.920;2023-01-31T13:17:31;43.85;;;28.52;;
62832;SDS011;48891;49.220;6.920;2023-01-31T13:19:58;49.10;;;29.75;;
62832;SDS011;48891;49.220;6.920;2023-01-31T13:22:30;46.97;;;30.13;;
62832;SDS011;48891;49.220;6.920;2023-01-31T13:25:11;47.08;;;29.95;;
62832;SDS011;48891;49.220;6.920;2023-01-31T13:27:40;49.20;;;31.00;;
62832;SDS011;48891;49.220;6.920;2023-01-31T13:35:13;46.85;;;29.98;;
62832;SDS011;48891;49.220;6.920;2023-01-31T13:37:40;48.30;;;28.80;;
62832;SDS011;48891;49.220;6.920;2023-01-31T13:40:20;50.22;;;30.77;;
62832;SDS011;48891;49.220;6.920;2023-01-31T13:42:46;48.40;;;29.30;;
62832;SDS011;48891;49.220;6.920;2023-01-31T13:45:19;49.22;;;30.35;;
62832;SDS011;48891;49.220;6.920;2023-01-31T13:47:46;46.83;;;29.58;;
62832;SDS011;48891;49.220;6.920;2023-01-31T13:50:33;45.30;;;29.07;;
62832;SDS011;48891;49.220;6.920;2023-01-31T13:53:00;50.30;;;31.13;;
62832;SDS011;48891;49.220;6.920;2023-01-31T13:55:33;54.90;;;30.67;;
62832;SDS011;48891;49.220;6.920;2023-01-31T14:03:03;48.88;;;31.83;;
62832;SDS011;48891;49.220;6.920;2023-01-31T14:10:50;53.55;;;32.42;;
62832;SDS011;48891;49.220;6.920;2023-01-31T14:13:19;52.45;;;32.58;;
62832;SDS011;48891;49.220;6.920;2023-01-31T14:15:48;49.85;;;31.17;;
62832;SDS011;48891;49.220;6.920;2023-01-31T14:18:28;54.22;;;33.15;;
62832;SDS011;48891;49.220;6.920;2023-01-31T14:21:18;52.35;;;32.60;;
62832;SDS011;48891;49.220;6.920;2023-01-31T14:23:44;53.47;;;31.88;;
62832;SDS011;48891;49.220;6.920;2023-01-31T14:28:53;49.80;;;33.85;;
62832;SDS011;48891;49.220;6.920;2023-01-31T14:31:18;55.42;;;33.83;;
62832;SDS011;48891;49.220;6.920;2023-01-31T14:33:44;52.38;;;34.20;;
62832;SDS011;48891;49.220;6.920;2023-01-31T14:38:59;52.58;;;33.83;;
62832;SDS011;48891;49.220;6.920;2023-01-31T14:42:33;53.30;;;33.17;;
62832;SDS011;48891;49.220;6.920;2023-01-31T14:44:36;54.45;;;33.42;;
62832;SDS011;48891;49.220;6.920;2023-01-31T14:57:29;52.10;;;34.07;;
62832;SDS011;48891;49.220;6.920;2023-01-31T14:59:59;52.20;;;33.10;;
62832;SDS011;48891;49.220;6.920;2023-01-31T15:04:55;50.33;;;32.80;;
62832;SDS011;48891;49.220;6.920;2023-01-31T15:07:21;51.10;;;34.20;;
62832;SDS011;48891;49.220;6.920;2023-01-31T15:09:46;55.20;;;34.17;;
62832;SDS011;48891;49.220;6.920;2023-01-31T15:12:50;54.40;;;34.57;;
62832;SDS011;48891;49.220;6.920;2023-01-31T15:14:56;58.75;;;34.35;;
62832;SDS011;48891;49.220;6.920;2023-01-31T15:17:23;52.55;;;32.88;;
62832;SDS011;48891;49.220;6.920;2023-01-31T15:19:52;52.67;;;33.35;;
62832;SDS011;48891;49.220;6.920;2023-01-31T15:22:19;51.60;;;32.75;;
62832;SDS011;48891;49.220;6.920;2023-01-31T15:24:49;49.47;;;31.98;;
62832;SDS011;48891;49.220;6.920;2023-01-31T15:27:17;53.90;;;34.40;;
62832;SDS011;48891;49.220;6.920;2023-01-31T15:29:51;55.97;;;34.60;;
62832;SDS011;48891;49.220;6.920;2023-01-31T15:32:19;52.28;;;34.08;;
62832;SDS011;48891;49.220;6.920;2023-01-31T15:34:51;53.72;;;35.22;;
62832;SDS011;48891;49.220;6.920;2023-01-31T15:37:22;54.88;;;33.53;;
62832;SDS011;48891;49.220;6.920;2023-01-31T15:42:23;48.45;;;32.50;;
62832;SDS011;48891;49.220;6.920;2023-01-31T15:44:48;51.22;;;32.83;;
62832;SDS011;48891;49.220;6.920;2023-01-31T15:47:20;54.03;;;33.83;;
62832;SDS011;48891;49.220;6.920;2023-01-31T15:49:46;52.55;;;32.67;;
62832;SDS011;48891;49.220;6.920;2023-01-31T15:52:12;50.97;;;33.15;;
62832;SDS011;48891;49.220;6.920;2023-01-31T15:54:38;57.42;;;33.83;;
62832;SDS011;48891;49.220;6.920;2023-01-31T15:57:04;50.63;;;34.13;;
62832;SDS011;48891;49.220;6.920;2023-01-31T15:59:33;52.35;;;32.88;;
62832;SDS011;48891;49.220;6.920;2023-01-31T16:02:01;55.13;;;34.95;;
62832;SDS011;48891;49.220;6.920;2023-01-31T16:04:28;53.00;;;33.25;;
62832;SDS011;48891;49.220;6.920;2023-01-31T16:06:53;55.40;;;33.10;;
62832;SDS011;48891;49.220;6.920;2023-01-31T16:09:37;55.17;;;34.13;;
62832;SDS011;48891;49.220;6.920;2023-01-31T16:12:02;51.92;;;33.00;;
62832;SDS011;48891;49.220;6.920;2023-01-31T16:14:27;50.75;;;33.58;;
62832;SDS011;48891;49.220;6.920;2023-01-31T16:16:53;53.92;;;35.42;;
62832;SDS011;48891;49.220;6.920;2023-01-31T16:19:27;55.90;;;34.42;;
62832;SDS011;48891;49.220;6.920;2023-01-31T16:21:53;54.72;;;35.08;;
62832;SDS011;48891;49.220;6.920;2023-01-31T16:24:19;53.42;;;34.58;;
62832;SDS011;48891;49.220;6.920;2023-01-31T16:26:56;52.55;;;33.47;;